sensor_id;sensor_type;location;lat;lon;timestamp;pressure;altitude;pressure_sealevel;temperature;humidity
30302;BME280;17111;52.130;5.028;2023-02-02T00:01:59;102205.03;;;15.87;50.69
30302;BME280;17111;52.130;5.028;2023-02-02T00:04:29;102219.25;;;15.87;49.63
30302;BME280;17111;52.130;5.028;2023-02-02T00:06:56;102213.91;;;15.87;49.86
30302;BME280;17111;52.130;5.028;2023-02-02T00:09:25;102209.53;;;15.86;49.53
30302;BME280;17111;52.130;5.028;2023-02-02T00:11:54;102213.91;;;15.87;50.70
30302;BME280;17111;52.130;5.028;2023-02-02T00:14:21;102221.09;;;15.87;50.57
30302;BME280;17111;52.130;5.028;2023-02-02T00:16:49;102223.75;;;15.87;50.10
30302;BME280;17111;52.130;5.028;2023-02-02T00:19:22;102230.94;;;15.86;50.53
30302;BME280;17111;52.130;5.028;2023-02-02T00:21:50;102233.59;;;15.86;49.69
30302;BME280;17111;52.130;5.028;2023-02-02T00:24:17;102230.94;;;15.86;50.30
30302;BME280;17111;52.130;5.028;2023-02-02T00:26:45;102228.38;;;15.85;50.01
30302;BME280;17111;52.130;5.028;2023-02-02T00:29:19;102227.53;;;15.84;50.42
30302;BME280;17111;52.130;5.028;2023-02-02T00:31:45;102230.19;;;15.84;49.75
30302;BME280;17111;52.130;5.028;2023-02-02T00:34:13;102226.63;;;15.84;50.14
30302;BME280;17111;52.130;5.028;2023-02-02T00:36:41;102232.88;;;15.84;49.70
30302;BME280;17111;52.130;5.028;2023-02-02T00:39:08;102232.88;;;15.84;50.36
30302;BME280;17111;52.130;5.028;2023-02-02T00:41:36;102227.53;;;15.84;50.85
30302;BME280;17111;52.130;5.028;2023-02-02T00:44:02;102230.28;;;15.83;50.59
30302;BME280;17111;52.130;5.028;2023-02-02T00:46:48;102240.97;;;15.83;50.14
30302;BME280;17111;52.130;5.028;2023-02-02T00:49:14;102233.81;;;15.83;50.82
30302;BME280;17111;52.130;5.028;2023-02-02T00:51:41;102232.94;;;15.83;49.91
30302;BME280;17111;52.130;5.028;2023-02-02T00:54:07;102238.28;;;15.83;49.89
30302;BME280;17111;52.130;5.028;2023-02-02T00:56:34;102243.66;;;15.83;49.89
30302;BME280;17111;52.130;5.028;2023-02-02T00:59:00;102234.66;;;15.84;50.83
30302;BME280;17111;52.130;5.028;2023-02-02T01:01:27;102244.50;;;15.83;50.89
30302;BME280;17111;52.130;5.028;2023-02-02T01:03:54;102236.47;;;15.83;50.86
30302;BME280;17111;52.130;5.028;2023-02-02T01:06:20;102228.47;;;15.83;50.34
30302;BME280;17111;52.130;5.028;2023-02-02T01:08:47;102230.19;;;15.84;50.16
30302;BME280;17111;52.130;5.028;2023-02-02T01:11:14;102230.19;;;15.84;50.38
30302;BME280;17111;52.130;5.028;2023-02-02T01:13:41;102239.06;;;15.85;50.78
30302;BME280;17111;52.130;5.028;2023-02-02T01:16:10;102231.91;;;15.85;49.98
30302;BME280;17111;52.130;5.028;2023-02-02T01:18:36;102238.09;;;15.86;49.85
30302;BME280;17111;52.130;5.028;2023-02-02T01:21:06;102231.91;;;15.85;50.91
30302;BME280;17111;52.130;5.028;2023-02-02T01:23:33;102233.59;;;15.86;50.21
30302;BME280;17111;52.130;5.028;2023-02-02T01:26:02;102229.22;;;15.85;49.86
30302;BME280;17111;52.130;5.028;2023-02-02T01:28:29;102231.91;;;15.85;49.81
30302;BME280;17111;52.130;5.028;2023-02-02T01:30:56;102239.06;;;15.85;50.11
30302;BME280;17111;52.130;5.028;2023-02-02T01:33:23;102220.34;;;15.85;50.81
30302;BME280;17111;52.130;5.028;2023-02-02T01:35:52;102225.69;;;15.85;50.83
30302;BME280;17111;52.130;5.028;2023-02-02T01:38:20;102225.78;;;15.83;50.32
30302;BME280;17111;52.130;5.028;2023-02-02T01:40:53;102225.78;;;15.83;50.73
30302;BME280;17111;52.130;5.028;2023-02-02T01:46:14;102231.03;;;15.85;50.12
30302;BME280;17111;52.130;5.028;2023-02-02T01:48:47;102231.97;;;15.84;50.07
30302;BME280;17111;52.130;5.028;2023-02-02T01:51:20;102227.59;;;15.83;51.06
30302;BME280;17111;52.130;5.028;2023-02-02T01:53:50;102236.47;;;15.83;50.53
30302;BME280;17111;52.130;5.028;2023-02-02T01:56:30;102221.41;;;15.82;50.92
30302;BME280;17111;52.130;5.028;2023-02-02T01:58:59;102237.31;;;15.84;49.85
30302;BME280;17111;52.130;5.028;2023-02-02T02:01:26;102225.78;;;15.83;49.86
30302;BME280;17111;52.130;5.028;2023-02-02T02:03:54;102222.25;;;15.83;50.29
30302;BME280;17111;52.130;5.028;2023-02-02T02:06:21;102232.94;;;15.83;50.12
30302;BME280;17111;52.130;5.028;2023-02-02T02:08:54;102221.41;;;15.82;50.31
30302;BME280;17111;52.130;5.028;2023-02-02T02:11:23;102226.75;;;15.82;50.40
30302;BME280;17111;52.130;5.028;2023-02-02T02:13:52;102232.09;;;15.82;50.27
30302;BME280;17111;52.130;5.028;2023-02-02T02:17:00;102218.72;;;15.82;50.14
30302;BME280;17111;52.130;5.028;2023-02-02T02:23:21;102222.47;;;15.79;51.22
30302;BME280;17111;52.130;5.028;2023-02-02T02:37:58;102220.66;;;15.80;50.83
30302;BME280;17111;52.130;5.028;2023-02-02T02:40:46;102212.72;;;15.78;50.90
30302;BME280;17111;52.130;5.028;2023-02-02T02:43:22;102213.50;;;15.81;50.33
30302;BME280;17111;52.130;5.028;2023-02-02T02:45:49;102202.69;;;15.82;50.57
30302;BME280;17111;52.130;5.028;2023-02-02T02:48:16;102209.00;;;15.81;50.29
30302;BME280;17111;52.130;5.028;2023-02-02T02:50:42;102204.50;;;15.82;50.39
30302;BME280;17111;52.130;5.028;2023-02-02T02:53:19;102203.66;;;15.81;50.29
30302;BME280;17111;52.130;5.028;2023-02-02T02:55:53;102208.03;;;15.82;50.22
30302;BME280;17111;52.130;5.028;2023-02-02T02:58:30;102208.03;;;15.82;50.67
30302;BME280;17111;52.130;5.028;2023-02-02T03:04:07;102202.56;;;15.84;51.02
30302;BME280;17111;52.130;5.028;2023-02-02T03:06:56;102203.53;;;15.83;51.31
30302;BME280;17111;52.130;5.028;2023-02-02T03:09:28;102200.78;;;15.84;51.18
30302;BME280;17111;52.130;5.028;2023-02-02T03:11:58;102212.41;;;15.83;51.25
30302;BME280;17111;52.130;5.028;2023-02-02T03:14:25;102215.94;;;15.84;51.21
30302;BME280;17111;52.130;5.028;2023-02-02T03:16:52;102224.94;;;15.83;50.33
30302;BME280;17111;52.130;5.028;2023-02-02T03:19:18;102239.16;;;15.83;50.59
30302;BME280;17111;52.130;5.028;2023-02-02T03:21:45;102242.78;;;15.82;50.59
30302;BME280;17111;52.130;5.028;2023-02-02T03:24:11;102245.47;;;15.82;50.41
30302;BME280;17111;52.130;5.028;2023-02-02T03:26:38;102245.47;;;15.82;50.98
30302;BME280;17111;52.130;5.028;2023-02-02T03:29:05;102249.00;;;15.83;50.83
30302;BME280;17111;52.130;5.028;2023-02-02T03:31:31;102248.13;;;15.82;51.42
30302;BME280;17111;52.130;5.028;2023-02-02T03:33:58;102247.28;;;15.82;51.23
30302;BME280;17111;52.130;5.028;2023-02-02T03:36:25;102242.78;;;15.82;50.81
30302;BME280;17111;52.130;5.028;2023-02-02T03:38:51;102242.78;;;15.82;51.02
30302;BME280;17111;52.130;5.028;2023-02-02T03:41:18;102240.25;;;15.81;50.82
30302;BME280;17111;52.130;5.028;2023-02-02T03:43:45;102237.56;;;15.81;51.38
30302;BME280;17111;52.130;5.028;2023-02-02T03:46:11;102241.94;;;15.82;50.48
30302;BME280;17111;52.130;5.028;2023-02-02T03:48:38;102241.81;;;15.83;50.81
30302;BME280;17111;52.130;5.028;2023-02-02T03:51:09;102238.41;;;15.81;51.36
30302;BME280;17111;52.130;5.028;2023-02-02T03:53:37;102237.56;;;15.81;50.39
30302;BME280;17111;52.130;5.028;2023-02-02T03:56:05;102239.25;;;15.82;50.36
30302;BME280;17111;52.130;5.028;2023-02-02T03:58:31;102247.28;;;15.82;50.63
30302;BME280;17111;52.130;5.028;2023-02-02T04:01:02;102245.59;;;15.81;50.70
30302;BME280;17111;52.130;5.028;2023-02-02T04:03:29;102241.94;;;15.82;50.61
30302;BME280;17111;52.130;5.028;2023-02-02T04:05:55;102234.88;;;15.81;51.10
30302;BME280;17111;52.130;5.028;2023-02-02T04:08:22;102234.88;;;15.81;51.33
30302;BME280;17111;52.130;5.028;2023-02-02T04:10:48;102230.41;;;15.81;51.55
30302;BME280;17111;52.130;5.028;2023-02-02T04:13:15;102226.88;;;15.81;50.89
30302;BME280;17111;52.130;5.028;2023-02-02T04:15:41;102227.72;;;15.81;50.76
30302;BME280;17111;52.130;5.028;2023-02-02T04:18:08;102234.03;;;15.80;50.73
30302;BME280;17111;52.130;5.028;2023-02-02T04:20:34;102234.88;;;15.81;51.56
30302;BME280;17111;52.130;5.028;2023-02-02T04:23:01;102230.41;;;15.81;50.58
30302;BME280;17111;52.130;5.028;2023-02-02T04:25:27;102239.38;;;15.80;50.92
30302;BME280;17111;52.130;5.028;2023-02-02T04:27:54;102245.59;;;15.81;51.61
30302;BME280;17111;52.130;5.028;2023-02-02T04:30:20;102250.06;;;15.80;51.33
30302;BME280;17111;52.130;5.028;2023-02-02T04:32:47;102258.84;;;15.82;50.97
30302;BME280;17111;52.130;5.028;2023-02-02T04:35:14;102249.97;;;15.82;50.56
30302;BME280;17111;52.130;5.028;2023-02-02T04:37:40;102238.28;;;15.83;51.34
30302;BME280;17111;52.130;5.028;2023-02-02T04:40:07;102233.81;;;15.83;51.69
30302;BME280;17111;52.130;5.028;2023-02-02T04:42:34;102240.00;;;15.84;51.77
30302;BME280;17111;52.130;5.028;2023-02-02T04:45:00;102239.06;;;15.85;50.86
30302;BME280;17111;52.130;5.028;2023-02-02T04:47:27;102239.06;;;15.85;51.61
30302;BME280;17111;52.130;5.028;2023-02-02T04:49:54;102235.41;;;15.86;51.69
30302;BME280;17111;52.130;5.028;2023-02-02T04:52:20;102238.09;;;15.86;51.37
30302;BME280;17111;52.130;5.028;2023-02-02T04:54:47;102234.56;;;15.85;51.56
30302;BME280;17111;52.130;5.028;2023-02-02T04:57:13;102247.94;;;15.85;51.29
30302;BME280;17111;52.130;5.028;2023-02-02T04:59:40;102247.94;;;15.85;51.15
30302;BME280;17111;52.130;5.028;2023-02-02T05:02:07;102255.97;;;15.85;51.70
30302;BME280;17111;52.130;5.028;2023-02-02T05:04:34;102263.97;;;15.85;51.30
30302;BME280;17111;52.130;5.028;2023-02-02T05:07:01;102270.28;;;15.84;51.27
30302;BME280;17111;52.130;5.028;2023-02-02T05:09:27;102264.81;;;15.86;51.63
30302;BME280;17111;52.130;5.028;2023-02-02T05:11:54;102260.44;;;15.85;50.93
30302;BME280;17111;52.130;5.028;2023-02-02T05:14:20;102256.94;;;15.84;51.55
30302;BME280;17111;52.130;5.028;2023-02-02T05:16:47;102267.63;;;15.84;51.51
30302;BME280;17111;52.130;5.028;2023-02-02T05:19:15;102264.94;;;15.84;51.22
30302;BME280;17111;52.130;5.028;2023-02-02T05:21:43;102258.72;;;15.84;51.49
30302;BME280;17111;52.130;5.028;2023-02-02T05:24:16;102257.78;;;15.85;51.61
30302;BME280;17111;52.130;5.028;2023-02-02T05:26:43;102262.28;;;15.84;51.68
30302;BME280;17111;52.130;5.028;2023-02-02T05:29:10;102263.22;;;15.83;51.53
30302;BME280;17111;52.130;5.028;2023-02-02T05:31:36;102261.38;;;15.84;51.70
30302;BME280;17111;52.130;5.028;2023-02-02T05:34:03;102265.03;;;15.83;51.89
30302;BME280;17111;52.130;5.028;2023-02-02T05:36:32;102258.84;;;15.82;50.75
30302;BME280;17111;52.130;5.028;2023-02-02T05:38:58;102260.53;;;15.83;51.92
30302;BME280;17111;52.130;5.028;2023-02-02T05:41:25;102248.03;;;15.84;50.68
30302;BME280;17111;52.130;5.028;2023-02-02T05:43:52;102252.50;;;15.83;51.62
30302;BME280;17111;52.130;5.028;2023-02-02T05:46:18;102259.69;;;15.83;50.85
30302;BME280;17111;52.130;5.028;2023-02-02T05:48:45;102274.75;;;15.84;51.50
30302;BME280;17111;52.130;5.028;2023-02-02T05:51:19;102266.84;;;15.82;51.89
30302;BME280;17111;52.130;5.028;2023-02-02T05:53:46;102263.22;;;15.83;50.94
30302;BME280;17111;52.130;5.028;2023-02-02T05:56:12;102261.50;;;15.82;51.62
30302;BME280;17111;52.130;5.028;2023-02-02T05:58:41;102272.09;;;15.84;50.87
30302;BME280;17111;52.130;5.028;2023-02-02T06:01:08;102266.72;;;15.84;51.86
30302;BME280;17111;52.130;5.028;2023-02-02T06:03:35;102278.19;;;15.86;51.14
30302;BME280;17111;52.130;5.028;2023-02-02T06:06:01;102267.63;;;15.84;51.71
30302;BME280;17111;52.130;5.028;2023-02-02T06:08:31;102270.19;;;15.86;51.00
30302;BME280;17111;52.130;5.028;2023-02-02T06:10:57;102269.31;;;15.85;51.38
30302;BME280;17111;52.130;5.028;2023-02-02T06:13:24;102272.84;;;15.86;51.56
30302;BME280;17111;52.130;5.028;2023-02-02T06:15:51;102276.38;;;15.86;50.73
30302;BME280;17111;52.130;5.028;2023-02-02T06:18:17;102281.72;;;15.86;51.56
30302;BME280;17111;52.130;5.028;2023-02-02T06:20:44;102277.22;;;15.87;51.76
30302;BME280;17111;52.130;5.028;2023-02-02T06:23:12;102279.91;;;15.87;51.58
30302;BME280;17111;52.130;5.028;2023-02-02T06:25:38;102285.25;;;15.87;50.80
30302;BME280;17111;52.130;5.028;2023-02-02T06:28:05;102284.41;;;15.86;51.59
30302;BME280;17111;52.130;5.028;2023-02-02T06:30:33;102291.56;;;15.86;51.36
30302;BME280;17111;52.130;5.028;2023-02-02T06:32:59;102296.91;;;15.86;51.26
30302;BME280;17111;52.130;5.028;2023-02-02T06:35:26;102298.72;;;15.85;51.64
30302;BME280;17111;52.130;5.028;2023-02-02T06:37:53;102302.25;;;15.86;51.66
30302;BME280;17111;52.130;5.028;2023-02-02T06:40:19;102306.75;;;15.85;51.32
30302;BME280;17111;52.130;5.028;2023-02-02T06:42:46;102316.59;;;15.85;50.80
30302;BME280;17111;52.130;5.028;2023-02-02T06:45:12;102321.94;;;15.85;51.41
30302;BME280;17111;52.130;5.028;2023-02-02T06:47:39;102320.22;;;15.84;50.80
30302;BME280;17111;52.130;5.028;2023-02-02T06:50:06;102326.44;;;15.84;51.34
30302;BME280;17111;52.130;5.028;2023-02-02T06:52:32;102339.81;;;15.84;51.70
30302;BME280;17111;52.130;5.028;2023-02-02T06:54:59;102331.78;;;15.84;51.45
30302;BME280;17111;52.130;5.028;2023-02-02T06:57:25;102322.88;;;15.84;51.22
30302;BME280;17111;52.130;5.028;2023-02-02T06:59:52;102330.91;;;15.84;51.91
30302;BME280;17111;52.130;5.028;2023-02-02T07:02:18;102315.81;;;15.83;51.68
30302;BME280;17111;52.130;5.028;2023-02-02T07:04:45;102328.22;;;15.84;51.67
30302;BME280;17111;52.130;5.028;2023-02-02T07:07:12;102325.56;;;15.84;50.88
30302;BME280;17111;52.130;5.028;2023-02-02T07:09:38;102324.69;;;15.83;51.15
30302;BME280;17111;52.130;5.028;2023-02-02T07:12:05;102321.94;;;15.85;51.18
30302;BME280;17111;52.130;5.028;2023-02-02T07:14:31;102314.00;;;15.83;51.89
30302;BME280;17111;52.130;5.028;2023-02-02T07:16:58;102320.13;;;15.85;51.58
30302;BME280;17111;52.130;5.028;2023-02-02T07:19:25;102327.19;;;15.86;51.46
30302;BME280;17111;52.130;5.028;2023-02-02T07:21:51;102331.66;;;15.86;51.61
30302;BME280;17111;52.130;5.028;2023-02-02T07:24:18;102334.34;;;15.86;51.42
30302;BME280;17111;52.130;5.028;2023-02-02T07:26:44;102339.69;;;15.86;50.97
30302;BME280;17111;52.130;5.028;2023-02-02T07:29:12;102346.75;;;15.87;51.72
30302;BME280;17111;52.130;5.028;2023-02-02T07:31:42;102357.44;;;15.87;51.70
30302;BME280;17111;52.130;5.028;2023-02-02T07:34:08;102344.06;;;15.87;51.54
30302;BME280;17111;52.130;5.028;2023-02-02T07:36:35;102350.28;;;15.87;50.72
30302;BME280;17111;52.130;5.028;2023-02-02T07:39:03;102352.94;;;15.87;51.30
30302;BME280;17111;52.130;5.028;2023-02-02T07:41:30;102349.41;;;15.87;51.88
30302;BME280;17111;52.130;5.028;2023-02-02T07:43:57;102336.06;;;15.87;51.83
30302;BME280;17111;52.130;5.028;2023-02-02T07:46:23;102352.09;;;15.87;50.79
30302;BME280;17111;52.130;5.028;2023-02-02T07:48:53;102356.59;;;15.86;51.18
30302;BME280;17111;52.130;5.028;2023-02-02T07:51:23;102361.94;;;15.86;50.93
30302;BME280;17111;52.130;5.028;2023-02-02T07:53:52;102360.22;;;15.85;50.95
30302;BME280;17111;52.130;5.028;2023-02-02T07:56:25;102368.25;;;15.85;51.53
30302;BME280;17111;52.130;5.028;2023-02-02T07:58:54;102377.13;;;15.86;51.58
30302;BME280;17111;52.130;5.028;2023-02-02T08:01:22;102374.44;;;15.86;51.72
30302;BME280;17111;52.130;5.028;2023-02-02T08:03:52;102373.59;;;15.85;50.73
30302;BME280;17111;52.130;5.028;2023-02-02T08:06:24;102379.91;;;15.84;51.88
30302;BME280;17111;52.130;5.028;2023-02-02T08:08:51;102377.13;;;15.86;51.93
30302;BME280;17111;52.130;5.028;2023-02-02T08:11:20;102381.63;;;15.85;51.96
30302;BME280;17111;52.130;5.028;2023-02-02T08:13:49;102377.97;;;15.86;51.12
30302;BME280;17111;52.130;5.028;2023-02-02T08:16:16;102373.59;;;15.85;50.93
30302;BME280;17111;52.130;5.028;2023-02-02T08:18:42;102380.75;;;15.85;51.93
30302;BME280;17111;52.130;5.028;2023-02-02T08:21:09;102387.81;;;15.86;51.20
30302;BME280;17111;52.130;5.028;2023-02-02T08:23:38;102380.75;;;15.85;51.83
30302;BME280;17111;52.130;5.028;2023-02-02T08:26:16;102387.81;;;15.86;50.92
30302;BME280;17111;52.130;5.028;2023-02-02T08:28:46;102397.66;;;15.85;51.13
30302;BME280;17111;52.130;5.028;2023-02-02T08:31:30;102403.00;;;15.85;51.19
30302;BME280;17111;52.130;5.028;2023-02-02T08:33:57;102397.66;;;15.85;51.35
30302;BME280;17111;52.130;5.028;2023-02-02T08:36:26;102403.84;;;15.86;51.26
30302;BME280;17111;52.130;5.028;2023-02-02T08:38:53;102405.56;;;15.87;51.24
30302;BME280;17111;52.130;5.028;2023-02-02T08:41:22;102409.94;;;15.88;51.89
30302;BME280;17111;52.130;5.028;2023-02-02T08:43:49;102415.28;;;15.88;51.45
30302;BME280;17111;52.130;5.028;2023-02-02T08:46:17;102420.56;;;15.89;51.81
30302;BME280;17111;52.130;5.028;2023-02-02T08:48:45;102423.13;;;15.91;51.43
30302;BME280;17111;52.130;5.028;2023-02-02T08:51:14;102423.03;;;15.92;51.81
30302;BME280;17111;52.130;5.028;2023-02-02T08:53:41;102420.25;;;15.94;51.11
30302;BME280;17111;52.130;5.028;2023-02-02T08:56:11;102423.78;;;15.94;51.60
30302;BME280;17111;52.130;5.028;2023-02-02T08:58:38;102421.88;;;15.96;51.55
30302;BME280;17111;52.130;5.028;2023-02-02T09:01:12;102424.56;;;15.96;50.90
30302;BME280;17111;52.130;5.028;2023-02-02T09:03:39;102435.03;;;15.99;51.78
30302;BME280;17111;52.130;5.028;2023-02-02T09:06:09;102425.09;;;16.01;50.88
30302;BME280;17111;52.130;5.028;2023-02-02T09:08:36;102431.31;;;16.02;51.11
30302;BME280;17111;52.130;5.028;2023-02-02T09:11:10;102441.88;;;16.03;50.63
30302;BME280;17111;52.130;5.028;2023-02-02T09:13:38;102440.94;;;16.04;51.57
30302;BME280;17111;52.130;5.028;2023-02-02T09:16:07;102443.63;;;16.04;51.18
30302;BME280;17111;52.130;5.028;2023-02-02T09:18:34;102440.84;;;16.06;51.01
30302;BME280;17111;52.130;5.028;2023-02-02T09:21:03;102444.47;;;16.05;50.85
30302;BME280;17111;52.130;5.028;2023-02-02T09:23:33;102453.25;;;16.07;50.70
30302;BME280;17111;52.130;5.028;2023-02-02T09:26:14;102454.22;;;16.06;50.51
30302;BME280;17111;52.130;5.028;2023-02-02T09:28:43;102453.16;;;16.09;50.76
30302;BME280;17111;52.130;5.028;2023-02-02T09:31:10;102461.19;;;16.09;50.90
30302;BME280;17111;52.130;5.028;2023-02-02T09:33:37;102471.88;;;16.09;51.21
30302;BME280;17111;52.130;5.028;2023-02-02T09:36:24;102471.13;;;16.07;51.23
30302;BME280;17111;52.130;5.028;2023-02-02T09:38:52;102469.09;;;16.10;51.31
30302;BME280;17111;52.130;5.028;2023-02-02T09:47:21;102473.69;;;16.08;50.73
30302;BME280;17111;52.130;5.028;2023-02-02T09:50:46;102463.84;;;16.09;50.64
30302;BME280;17111;52.130;5.028;2023-02-02T10:00:44;102468.13;;;16.11;51.16
30302;BME280;17111;52.130;5.028;2023-02-02T10:03:20;102476.16;;;16.11;51.10
30302;BME280;17111;52.130;5.028;2023-02-02T10:05:58;102467.19;;;16.12;51.13
30302;BME280;17111;52.130;5.028;2023-02-02T10:08:33;102485.03;;;16.12;50.67
30302;BME280;17111;52.130;5.028;2023-02-02T10:11:14;102488.59;;;16.12;50.50
30302;BME280;17111;52.130;5.028;2023-02-02T10:13:46;102489.44;;;16.13;50.27
30302;BME280;17111;52.130;5.028;2023-02-02T10:16:18;102500.03;;;16.14;50.65
30302;BME280;17111;52.130;5.028;2023-02-02T10:18:58;102492.13;;;16.13;50.83
30302;BME280;17111;52.130;5.028;2023-02-02T10:21:50;102492.88;;;16.15;50.94
30302;BME280;17111;52.130;5.028;2023-02-02T10:24:25;102491.91;;;16.16;50.63
30302;BME280;17111;52.130;5.028;2023-02-02T10:26:56;102497.25;;;16.16;50.48
30302;BME280;17111;52.130;5.028;2023-02-02T10:29:30;102506.16;;;16.16;51.16
30302;BME280;17111;52.130;5.028;2023-02-02T10:32:20;102503.47;;;16.16;50.08
30302;BME280;17111;52.130;5.028;2023-02-02T10:43:12;102515.88;;;16.17;51.11
30302;BME280;17111;52.130;5.028;2023-02-02T10:46:02;102518.56;;;16.17;50.41
30302;BME280;17111;52.130;5.028;2023-02-02T10:48:34;102512.38;;;16.17;51.22
30302;BME280;17111;52.130;5.028;2023-02-02T10:51:25;102516.84;;;16.16;51.08
30302;BME280;17111;52.130;5.028;2023-02-02T10:53:54;102517.72;;;16.17;50.54
30302;BME280;17111;52.130;5.028;2023-02-02T10:56:30;102513.22;;;16.17;51.29
30302;BME280;17111;52.130;5.028;2023-02-02T10:59:18;102508.84;;;16.16;50.53
30302;BME280;17111;52.130;5.028;2023-02-02T11:01:47;102503.38;;;16.18;51.14
30302;BME280;17111;52.130;5.028;2023-02-02T11:04:14;102513.09;;;16.19;50.54
30302;BME280;17111;52.130;5.028;2023-02-02T11:06:59;102513.09;;;16.19;50.97
30302;BME280;17111;52.130;5.028;2023-02-02T11:09:30;102518.44;;;16.19;50.54
30302;BME280;17111;52.130;5.028;2023-02-02T11:12:36;102520.28;;;16.18;50.91
30302;BME280;17111;52.130;5.028;2023-02-02T11:15:21;102514.63;;;16.23;50.15
30302;BME280;17111;52.130;5.028;2023-02-02T11:17:48;102512.91;;;16.22;51.09
30302;BME280;17111;52.130;5.028;2023-02-02T11:20:33;102514.81;;;16.20;50.82
30302;BME280;17111;52.130;5.028;2023-02-02T11:23:01;102517.41;;;16.21;50.53
30302;BME280;17111;52.130;5.028;2023-02-02T11:25:32;102514.72;;;16.21;51.21
30302;BME280;17111;52.130;5.028;2023-02-02T11:28:08;102511.09;;;16.22;50.32
30302;BME280;17111;52.130;5.028;2023-02-02T11:30:37;102501.34;;;16.21;51.17
30302;BME280;17111;52.130;5.028;2023-02-02T11:33:25;102516.56;;;16.21;51.10
30302;BME280;17111;52.130;5.028;2023-02-02T11:36:01;102518.25;;;16.22;50.26
30302;BME280;17111;52.130;5.028;2023-02-02T11:38:28;102509.38;;;16.21;51.00
30302;BME280;17111;52.130;5.028;2023-02-02T11:43:27;102517.41;;;16.21;50.81
30302;BME280;17111;52.130;5.028;2023-02-02T11:48:29;102505.06;;;16.19;51.21
30302;BME280;17111;52.130;5.028;2023-02-02T11:50:58;102503.06;;;16.22;50.26
30302;BME280;17111;52.130;5.028;2023-02-02T11:53:27;102515.69;;;16.20;50.34
30302;BME280;17111;52.130;5.028;2023-02-02T11:55:56;102512.06;;;16.21;50.76
30302;BME280;17111;52.130;5.028;2023-02-02T11:58:39;102509.47;;;16.20;51.00
30302;BME280;17111;52.130;5.028;2023-02-02T12:01:25;102506.91;;;16.18;51.03
30302;BME280;17111;52.130;5.028;2023-02-02T12:03:53;102502.50;;;16.17;50.98
30302;BME280;17111;52.130;5.028;2023-02-02T12:06:25;102495.16;;;16.21;50.81
30302;BME280;17111;52.130;5.028;2023-02-02T12:08:56;102498.75;;;16.20;50.49
30302;BME280;17111;52.130;5.028;2023-02-02T12:14:04;102504.22;;;16.18;50.46
30302;BME280;17111;52.130;5.028;2023-02-02T12:17:00;102514.06;;;16.18;50.39
30302;BME280;17111;52.130;5.028;2023-02-02T12:22:48;102503.47;;;16.16;50.38
30302;BME280;17111;52.130;5.028;2023-02-02T12:28:17;102497.25;;;16.16;50.05
30302;BME280;17111;52.130;5.028;2023-02-02T12:31:01;102498.13;;;16.16;50.31
30302;BME280;17111;52.130;5.028;2023-02-02T12:36:37;102506.16;;;16.16;50.11
30302;BME280;17111;52.130;5.028;2023-02-02T12:47:23;102500.69;;;16.18;50.89
30302;BME280;17111;52.130;5.028;2023-02-02T12:50:25;102501.53;;;16.18;50.67
30302;BME280;17111;52.130;5.028;2023-02-02T12:56:03;102496.09;;;16.20;51.15
30302;BME280;17111;52.130;5.028;2023-02-02T13:01:30;102495.22;;;16.19;50.78
30302;BME280;17111;52.130;5.028;2023-02-02T13:09:36;102482.63;;;16.21;50.50
30302;BME280;17111;52.130;5.028;2023-02-02T13:12:09;102486.91;;;16.24;50.74
30302;BME280;17111;52.130;5.028;2023-02-02T13:14:47;102488.81;;;16.22;50.89
30302;BME280;17111;52.130;5.028;2023-02-02T13:20:27;102496.00;;;16.21;50.43
30302;BME280;17111;52.130;5.028;2023-02-02T13:22:59;102491.50;;;16.22;50.53
30302;BME280;17111;52.130;5.028;2023-02-02T13:25:30;102486.16;;;16.22;51.01
30302;BME280;17111;52.130;5.028;2023-02-02T13:28:00;102483.59;;;16.20;50.87
30302;BME280;17111;52.130;5.028;2023-02-02T13:30:39;102493.41;;;16.20;50.90
30302;BME280;17111;52.130;5.028;2023-02-02T13:35:48;102498.75;;;16.20;50.62
30302;BME280;17111;52.130;5.028;2023-02-02T13:38:24;102499.72;;;16.19;51.24
30302;BME280;17111;52.130;5.028;2023-02-02T13:40:56;102496.19;;;16.18;51.32
30302;BME280;17111;52.130;5.028;2023-02-02T13:43:46;102498.88;;;16.18;51.00
30302;BME280;17111;52.130;5.028;2023-02-02T13:46:51;102496.19;;;16.18;50.49
30302;BME280;17111;52.130;5.028;2023-02-02T13:49:27;102493.53;;;16.18;50.63
30302;BME280;17111;52.130;5.028;2023-02-02T13:58:14;102500.81;;;16.16;51.31
30302;BME280;17111;52.130;5.028;2023-02-02T14:00:47;102496.31;;;16.17;51.10
30302;BME280;17111;52.130;5.028;2023-02-02T14:03:29;102493.41;;;16.20;50.55
30302;BME280;17111;52.130;5.028;2023-02-02T14:08:35;102502.31;;;16.20;51.52
30302;BME280;17111;52.130;5.028;2023-02-02T14:11:04;102498.75;;;16.20;50.75
30302;BME280;17111;52.130;5.028;2023-02-02T14:13:44;102500.69;;;16.18;51.21
30302;BME280;17111;52.130;5.028;2023-02-02T14:19:00;102504.09;;;16.20;51.48
30302;BME280;17111;52.130;5.028;2023-02-02T14:24:03;102502.41;;;16.19;51.39
30302;BME280;17111;52.130;5.028;2023-02-02T14:26:50;102506.16;;;16.16;50.87
30302;BME280;17111;52.130;5.028;2023-02-02T14:34:36;102509.75;;;16.15;51.28
30302;BME280;17111;52.130;5.028;2023-02-02T14:42:33;102516.94;;;16.15;51.52
30302;BME280;17111;52.130;5.028;2023-02-02T14:45:32;102516.09;;;16.14;50.65
30302;BME280;17111;52.130;5.028;2023-02-02T14:53:14;102517.06;;;16.13;50.98
30302;BME280;17111;52.130;5.028;2023-02-02T14:58:22;102526.78;;;16.14;50.57
30302;BME280;17111;52.130;5.028;2023-02-02T15:03:46;102516.09;;;16.14;50.93
30302;BME280;17111;52.130;5.028;2023-02-02T15:06:33;102526.78;;;16.14;51.46
30302;BME280;17111;52.130;5.028;2023-02-02T15:20:05;102534.69;;;16.16;51.38
30302;BME280;17111;52.130;5.028;2023-02-02T15:22:41;102534.81;;;16.14;50.93